Estación municipal de Cercs - St.Jordi (Berguedà, )

Consulta los datos en tiempo real de la estación municipal de Cercs - St.Jordi





Hora UTC 01:40
Temperatura 19.3 ºC
Humedad 77.5 %
Presión 1024.2 hPa
Pluja 0.0 mm
Velocidad viento 3.2 km/h
Dirección viento NW
Radiación solar 0.1 W/m²

Datos diarios 2026-09-03



Hora UTC (invierno +1h; verano +2h)
Temperatura (ºC) Humedad (%) Presión (hPa) Velocidad viento (km/h) Precipitación (mm) Radiación solar (W/m²)
Hora UTC Aire Humedad Presión Vel. Dir. Vel. Max Dir. Intent. máx 5 min. Rad. Sol.
00:05 19.8 75.5 1024.4 0.3 S 0.3 S 0.0 0.1
00:10 19.6 76.4 1024.4 0.0 SW 3.4 SW 0.0 0.1
00:15 19.5 76.9 1024.3 0.0 NNE 0.0 SW 0.0 0.1
00:20 19.5 76.8 1024.3 0.0 NNE 0.0 SW 0.0 0.1
00:25 19.6 76.7 1024.3 1.9 ENE 6.1 ENE 0.0 0.1
00:30 19.7 76.1 1024.3 0.4 SSE 3.4 ENE 0.0 0.1
00:35 19.6 76.5 1024.3 0.2 W 3.4 SW 0.0 0.1
00:40 19.5 77.1 1024.3 2.1 WNW 6.1 WNW 0.0 0.1
00:45 19.5 76.9 1024.3 0.0 NNE 0.0 WNW 0.0 0.1
00:50 19.7 76.3 1024.3 2.5 ESE 6.1 ENE 0.0 0.1
00:55 19.5 76.8 1024.3 1.1 SSW 6.1 SSW 0.0 0.1
01:00 19.4 77.4 1024.2 0.0 NNE 0.0 SW 0.0 0.1
01:05 19.4 77.3 1024.2 0.0 NNE 0.0 ENE 0.0 0.1
01:10 19.4 77.0 1024.2 0.0 NNE 0.0 NNE 0.0 0.2
01:15 19.2 77.9 1024.2 0.0 NNE 0.0 SE 0.0 0.1
01:20 19.1 78.7 1024.2 0.0 NNE 0.0 SE 0.0 0.1
01:25 19.1 79.0 1024.2 0.0 NNE 0.0 SE 0.0 0.1
01:30 19.1 78.8 1024.2 0.3 NW 6.1 NW 0.0 0.1
01:35 19.2 78.2 1024.2 3.9 NW 11.5 NW 0.0 0.1
01:40 19.3 77.5 1024.2 3.2 NW 11.5 NW 0.0 0.1
Máxima 19.8 79.0 1024.4 3.9 NW 11.5 NW 0.0 0.2
Mínima 19.1 75.5 1024.2
Total 0.0